sensor_id;sensor_type;location;lat;lon;timestamp;temperature;humidity
35127;DHT22;21300;52.006;5.798;2022-10-24T00:02:16;14.70;95.80
35127;DHT22;21300;52.006;5.798;2022-10-24T00:04:42;14.70;95.80
35127;DHT22;21300;52.006;5.798;2022-10-24T00:07:08;14.70;95.80
35127;DHT22;21300;52.006;5.798;2022-10-24T00:09:34;14.70;95.80
35127;DHT22;21300;52.006;5.798;2022-10-24T00:12:02;14.70;95.80
35127;DHT22;21300;52.006;5.798;2022-10-24T00:14:28;14.60;95.80
35127;DHT22;21300;52.006;5.798;2022-10-24T00:16:53;14.60;95.90
35127;DHT22;21300;52.006;5.798;2022-10-24T00:19:19;14.60;95.80
35127;DHT22;21300;52.006;5.798;2022-10-24T00:21:45;14.60;95.80
35127;DHT22;21300;52.006;5.798;2022-10-24T00:24:10;14.60;95.80
35127;DHT22;21300;52.006;5.798;2022-10-24T00:26:36;14.60;95.80
35127;DHT22;21300;52.006;5.798;2022-10-24T00:29:02;14.60;95.80
35127;DHT22;21300;52.006;5.798;2022-10-24T00:31:28;14.60;95.80
35127;DHT22;21300;52.006;5.798;2022-10-24T00:33:53;14.60;95.90
35127;DHT22;21300;52.006;5.798;2022-10-24T00:36:22;14.60;95.80
35127;DHT22;21300;52.006;5.798;2022-10-24T00:38:49;14.60;95.90
35127;DHT22;21300;52.006;5.798;2022-10-24T00:41:21;14.60;95.90
35127;DHT22;21300;52.006;5.798;2022-10-24T00:43:47;14.50;95.90
35127;DHT22;21300;52.006;5.798;2022-10-24T00:46:14;14.60;95.90
35127;DHT22;21300;52.006;5.798;2022-10-24T00:48:45;14.60;95.90
35127;DHT22;21300;52.006;5.798;2022-10-24T00:51:21;14.50;95.90
35127;DHT22;21300;52.006;5.798;2022-10-24T00:54:00;14.50;95.90
35127;DHT22;21300;52.006;5.798;2022-10-24T00:56:30;14.50;95.90
35127;DHT22;21300;52.006;5.798;2022-10-24T00:58:58;14.50;95.90
35127;DHT22;21300;52.006;5.798;2022-10-24T01:01:25;14.50;95.90
35127;DHT22;21300;52.006;5.798;2022-10-24T01:03:51;14.50;95.90
35127;DHT22;21300;52.006;5.798;2022-10-24T01:09:26;14.50;95.90
35127;DHT22;21300;52.006;5.798;2022-10-24T01:22:41;14.40;96.00
35127;DHT22;21300;52.006;5.798;2022-10-24T01:25:24;14.40;96.00
35127;DHT22;21300;52.006;5.798;2022-10-24T01:31:15;14.40;96.00
35127;DHT22;21300;52.006;5.798;2022-10-24T01:33:49;14.40;96.00
35127;DHT22;21300;52.006;5.798;2022-10-24T01:36:22;14.40;96.00
35127;DHT22;21300;52.006;5.798;2022-10-24T01:38:55;14.40;96.00
35127;DHT22;21300;52.006;5.798;2022-10-24T01:41:24;14.40;96.00
35127;DHT22;21300;52.006;5.798;2022-10-24T01:44:05;14.40;96.10
35127;DHT22;21300;52.006;5.798;2022-10-24T01:46:36;14.40;96.00
35127;DHT22;21300;52.006;5.798;2022-10-24T01:49:21;14.30;96.00
35127;DHT22;21300;52.006;5.798;2022-10-24T01:51:51;14.30;96.00
35127;DHT22;21300;52.006;5.798;2022-10-24T01:54:18;14.30;96.00
35127;DHT22;21300;52.006;5.798;2022-10-24T01:56:44;14.30;96.00
35127;DHT22;21300;52.006;5.798;2022-10-24T02:02:07;14.30;96.00
35127;DHT22;21300;52.006;5.798;2022-10-24T02:04:39;14.30;96.00
35127;DHT22;21300;52.006;5.798;2022-10-24T02:07:07;14.30;96.00
35127;DHT22;21300;52.006;5.798;2022-10-24T02:09:36;14.30;96.00
35127;DHT22;21300;52.006;5.798;2022-10-24T02:12:03;14.30;96.00
35127;DHT22;21300;52.006;5.798;2022-10-24T02:14:35;14.30;96.00
35127;DHT22;21300;52.006;5.798;2022-10-24T02:17:03;14.30;96.00
35127;DHT22;21300;52.006;5.798;2022-10-24T02:19:30;14.20;96.00
35127;DHT22;21300;52.006;5.798;2022-10-24T02:25:02;14.20;96.10
35127;DHT22;21300;52.006;5.798;2022-10-24T02:27:36;14.20;96.00
35127;DHT22;21300;52.006;5.798;2022-10-24T02:30:08;14.20;96.10
35127;DHT22;21300;52.006;5.798;2022-10-24T02:32:46;14.20;96.10
35127;DHT22;21300;52.006;5.798;2022-10-24T02:35:16;14.20;96.10
35127;DHT22;21300;52.006;5.798;2022-10-24T02:37:45;14.20;96.10
35127;DHT22;21300;52.006;5.798;2022-10-24T02:40:13;14.20;96.10
35127;DHT22;21300;52.006;5.798;2022-10-24T02:42:42;14.20;96.10
35127;DHT22;21300;52.006;5.798;2022-10-24T02:45:09;14.20;96.10
35127;DHT22;21300;52.006;5.798;2022-10-24T02:47:37;14.10;96.10
35127;DHT22;21300;52.006;5.798;2022-10-24T02:50:04;14.20;96.10
35127;DHT22;21300;52.006;5.798;2022-10-24T02:52:30;14.20;96.10
35127;DHT22;21300;52.006;5.798;2022-10-24T02:55:15;14.10;96.10
35127;DHT22;21300;52.006;5.798;2022-10-24T02:57:41;14.10;96.10
35127;DHT22;21300;52.006;5.798;2022-10-24T03:00:07;14.10;96.00
35127;DHT22;21300;52.006;5.798;2022-10-24T03:02:33;14.10;96.10
35127;DHT22;21300;52.006;5.798;2022-10-24T03:04:58;14.10;96.10
35127;DHT22;21300;52.006;5.798;2022-10-24T03:07:24;14.10;96.10
35127;DHT22;21300;52.006;5.798;2022-10-24T03:09:50;14.10;96.10
35127;DHT22;21300;52.006;5.798;2022-10-24T03:12:16;14.10;96.10
35127;DHT22;21300;52.006;5.798;2022-10-24T03:14:42;14.10;96.10
35127;DHT22;21300;52.006;5.798;2022-10-24T03:17:08;14.10;96.10
35127;DHT22;21300;52.006;5.798;2022-10-24T03:19:33;14.10;96.10
35127;DHT22;21300;52.006;5.798;2022-10-24T03:21:59;14.10;96.10
35127;DHT22;21300;52.006;5.798;2022-10-24T03:24:25;14.10;96.10
35127;DHT22;21300;52.006;5.798;2022-10-24T03:26:50;14.10;96.10
35127;DHT22;21300;52.006;5.798;2022-10-24T03:29:17;14.10;96.10
35127;DHT22;21300;52.006;5.798;2022-10-24T03:31:43;14.00;96.00
35127;DHT22;21300;52.006;5.798;2022-10-24T03:34:08;14.00;96.00
35127;DHT22;21300;52.006;5.798;2022-10-24T03:36:34;14.10;96.10
35127;DHT22;21300;52.006;5.798;2022-10-24T03:38:59;14.00;96.10
35127;DHT22;21300;52.006;5.798;2022-10-24T03:41:25;14.10;96.10
35127;DHT22;21300;52.006;5.798;2022-10-24T03:43:51;14.00;96.00
35127;DHT22;21300;52.006;5.798;2022-10-24T03:46:16;14.00;96.10
35127;DHT22;21300;52.006;5.798;2022-10-24T03:48:42;14.00;96.00
35127;DHT22;21300;52.006;5.798;2022-10-24T03:51:07;14.00;96.00
35127;DHT22;21300;52.006;5.798;2022-10-24T03:53:33;14.00;96.00
35127;DHT22;21300;52.006;5.798;2022-10-24T03:55:59;14.00;96.10
35127;DHT22;21300;52.006;5.798;2022-10-24T03:58:25;14.00;96.00
35127;DHT22;21300;52.006;5.798;2022-10-24T04:00:51;13.90;96.00
35127;DHT22;21300;52.006;5.798;2022-10-24T04:03:17;13.90;96.00
35127;DHT22;21300;52.006;5.798;2022-10-24T04:05:42;13.90;96.00
35127;DHT22;21300;52.006;5.798;2022-10-24T04:08:08;14.00;96.10
35127;DHT22;21300;52.006;5.798;2022-10-24T04:10:33;14.00;96.00
35127;DHT22;21300;52.006;5.798;2022-10-24T04:12:59;14.00;96.00
35127;DHT22;21300;52.006;5.798;2022-10-24T04:15:25;13.90;96.00
35127;DHT22;21300;52.006;5.798;2022-10-24T04:17:50;13.90;96.00
35127;DHT22;21300;52.006;5.798;2022-10-24T04:20:16;14.00;96.00
35127;DHT22;21300;52.006;5.798;2022-10-24T04:22:45;13.90;96.00
35127;DHT22;21300;52.006;5.798;2022-10-24T04:25:11;13.90;96.00
35127;DHT22;21300;52.006;5.798;2022-10-24T04:27:37;13.90;96.00
35127;DHT22;21300;52.006;5.798;2022-10-24T04:30:09;13.90;96.00
35127;DHT22;21300;52.006;5.798;2022-10-24T04:32:35;13.90;95.90
35127;DHT22;21300;52.006;5.798;2022-10-24T04:37:46;13.90;96.00
35127;DHT22;21300;52.006;5.798;2022-10-24T04:40:11;13.90;96.00
35127;DHT22;21300;52.006;5.798;2022-10-24T04:42:37;13.90;96.00
35127;DHT22;21300;52.006;5.798;2022-10-24T04:45:03;13.90;96.00
35127;DHT22;21300;52.006;5.798;2022-10-24T04:47:29;13.90;96.00
35127;DHT22;21300;52.006;5.798;2022-10-24T04:49:54;13.90;96.00
35127;DHT22;21300;52.006;5.798;2022-10-24T04:52:20;13.90;96.00
35127;DHT22;21300;52.006;5.798;2022-10-24T04:54:46;13.80;95.90
35127;DHT22;21300;52.006;5.798;2022-10-24T04:57:11;13.80;96.00
35127;DHT22;21300;52.006;5.798;2022-10-24T04:59:37;13.80;96.00
35127;DHT22;21300;52.006;5.798;2022-10-24T05:02:02;13.80;96.00
35127;DHT22;21300;52.006;5.798;2022-10-24T05:04:28;13.80;96.00
35127;DHT22;21300;52.006;5.798;2022-10-24T05:06:53;13.80;95.90
35127;DHT22;21300;52.006;5.798;2022-10-24T05:09:19;13.80;95.90
35127;DHT22;21300;52.006;5.798;2022-10-24T05:11:45;13.80;96.00
35127;DHT22;21300;52.006;5.798;2022-10-24T05:14:10;13.80;96.00
35127;DHT22;21300;52.006;5.798;2022-10-24T05:16:36;13.80;96.00
35127;DHT22;21300;52.006;5.798;2022-10-24T05:19:01;13.80;95.90
35127;DHT22;21300;52.006;5.798;2022-10-24T05:21:27;13.80;95.90
35127;DHT22;21300;52.006;5.798;2022-10-24T05:23:52;13.80;96.00
35127;DHT22;21300;52.006;5.798;2022-10-24T05:26:18;13.80;96.00
35127;DHT22;21300;52.006;5.798;2022-10-24T05:28:44;13.80;96.00
35127;DHT22;21300;52.006;5.798;2022-10-24T05:31:09;13.80;96.00
35127;DHT22;21300;52.006;5.798;2022-10-24T05:33:35;13.80;96.00
35127;DHT22;21300;52.006;5.798;2022-10-24T05:36:01;13.80;96.00
35127;DHT22;21300;52.006;5.798;2022-10-24T05:38:26;13.80;95.90
35127;DHT22;21300;52.006;5.798;2022-10-24T05:40:52;13.70;95.90
35127;DHT22;21300;52.006;5.798;2022-10-24T05:43:18;13.80;95.90
35127;DHT22;21300;52.006;5.798;2022-10-24T05:45:46;13.80;96.00
35127;DHT22;21300;52.006;5.798;2022-10-24T05:48:12;13.70;95.90
35127;DHT22;21300;52.006;5.798;2022-10-24T05:50:38;13.70;95.90
35127;DHT22;21300;52.006;5.798;2022-10-24T05:53:04;13.70;95.90
35127;DHT22;21300;52.006;5.798;2022-10-24T05:55:30;13.80;95.90
35127;DHT22;21300;52.006;5.798;2022-10-24T05:57:56;13.70;95.90
35127;DHT22;21300;52.006;5.798;2022-10-24T06:00:22;13.70;95.90
35127;DHT22;21300;52.006;5.798;2022-10-24T06:02:47;13.70;95.90
35127;DHT22;21300;52.006;5.798;2022-10-24T06:05:13;13.70;95.90
35127;DHT22;21300;52.006;5.798;2022-10-24T06:07:39;13.70;95.90
35127;DHT22;21300;52.006;5.798;2022-10-24T06:10:07;13.70;95.90
35127;DHT22;21300;52.006;5.798;2022-10-24T06:12:33;13.70;95.90
35127;DHT22;21300;52.006;5.798;2022-10-24T06:15:01;13.70;95.90
35127;DHT22;21300;52.006;5.798;2022-10-24T06:17:27;13.70;95.90
35127;DHT22;21300;52.006;5.798;2022-10-24T06:19:53;13.70;95.90
35127;DHT22;21300;52.006;5.798;2022-10-24T06:22:19;13.70;95.90
35127;DHT22;21300;52.006;5.798;2022-10-24T06:24:49;13.70;95.90
35127;DHT22;21300;52.006;5.798;2022-10-24T06:27:15;13.70;95.60
35127;DHT22;21300;52.006;5.798;2022-10-24T06:29:41;13.80;94.90
35127;DHT22;21300;52.006;5.798;2022-10-24T06:32:06;14.00;94.20
35127;DHT22;21300;52.006;5.798;2022-10-24T06:34:32;13.90;94.30
35127;DHT22;21300;52.006;5.798;2022-10-24T06:36:57;13.90;94.50
35127;DHT22;21300;52.006;5.798;2022-10-24T06:39:23;13.90;94.90
35127;DHT22;21300;52.006;5.798;2022-10-24T06:41:49;13.80;95.10
35127;DHT22;21300;52.006;5.798;2022-10-24T06:44:14;13.80;95.20
35127;DHT22;21300;52.006;5.798;2022-10-24T06:46:40;13.80;95.30
35127;DHT22;21300;52.006;5.798;2022-10-24T06:49:06;13.80;95.20
35127;DHT22;21300;52.006;5.798;2022-10-24T06:51:32;13.80;95.10
35127;DHT22;21300;52.006;5.798;2022-10-24T06:53:58;13.80;95.00
35127;DHT22;21300;52.006;5.798;2022-10-24T06:56:24;13.80;95.10
35127;DHT22;21300;52.006;5.798;2022-10-24T06:58:49;13.80;95.00
35127;DHT22;21300;52.006;5.798;2022-10-24T07:01:20;13.80;95.10
35127;DHT22;21300;52.006;5.798;2022-10-24T07:03:47;13.80;95.00
35127;DHT22;21300;52.006;5.798;2022-10-24T07:06:22;13.90;95.00
35127;DHT22;21300;52.006;5.798;2022-10-24T07:08:48;13.80;95.10
35127;DHT22;21300;52.006;5.798;2022-10-24T07:11:14;13.90;94.70
35127;DHT22;21300;52.006;5.798;2022-10-24T07:13:40;14.20;93.70
35127;DHT22;21300;52.006;5.798;2022-10-24T07:16:06;14.20;93.70
35127;DHT22;21300;52.006;5.798;2022-10-24T07:18:31;14.20;93.80
35127;DHT22;21300;52.006;5.798;2022-10-24T07:21:01;14.20;94.10
35127;DHT22;21300;52.006;5.798;2022-10-24T07:23:27;14.10;94.20
35127;DHT22;21300;52.006;5.798;2022-10-24T07:25:53;14.10;94.40
35127;DHT22;21300;52.006;5.798;2022-10-24T07:28:18;14.00;94.40
35127;DHT22;21300;52.006;5.798;2022-10-24T07:30:44;14.00;94.60
35127;DHT22;21300;52.006;5.798;2022-10-24T07:33:09;14.00;94.70
35127;DHT22;21300;52.006;5.798;2022-10-24T07:35:41;13.90;94.80
35127;DHT22;21300;52.006;5.798;2022-10-24T07:38:06;13.90;94.80
35127;DHT22;21300;52.006;5.798;2022-10-24T07:40:32;13.90;94.90
35127;DHT22;21300;52.006;5.798;2022-10-24T07:42:57;14.00;94.90
35127;DHT22;21300;52.006;5.798;2022-10-24T07:45:23;13.90;94.90
35127;DHT22;21300;52.006;5.798;2022-10-24T07:47:48;13.90;94.90
35127;DHT22;21300;52.006;5.798;2022-10-24T07:50:14;14.00;94.90
35127;DHT22;21300;52.006;5.798;2022-10-24T07:52:41;14.00;94.90
35127;DHT22;21300;52.006;5.798;2022-10-24T07:55:07;14.00;94.90
35127;DHT22;21300;52.006;5.798;2022-10-24T07:57:33;13.90;94.90
35127;DHT22;21300;52.006;5.798;2022-10-24T07:59:58;13.90;95.00
35127;DHT22;21300;52.006;5.798;2022-10-24T08:02:24;14.00;95.00
35127;DHT22;21300;52.006;5.798;2022-10-24T08:04:49;14.00;95.00
35127;DHT22;21300;52.006;5.798;2022-10-24T08:07:15;14.00;95.10
35127;DHT22;21300;52.006;5.798;2022-10-24T08:09:44;14.00;95.10
35127;DHT22;21300;52.006;5.798;2022-10-24T08:12:10;14.00;95.10
35127;DHT22;21300;52.006;5.798;2022-10-24T08:14:37;14.00;95.10
35127;DHT22;21300;52.006;5.798;2022-10-24T08:17:03;14.00;95.10
35127;DHT22;21300;52.006;5.798;2022-10-24T08:19:30;14.00;95.10
35127;DHT22;21300;52.006;5.798;2022-10-24T08:21:56;13.90;95.10
35127;DHT22;21300;52.006;5.798;2022-10-24T08:24:21;14.00;95.10
35127;DHT22;21300;52.006;5.798;2022-10-24T08:26:47;14.00;95.10
35127;DHT22;21300;52.006;5.798;2022-10-24T08:29:13;14.00;95.10
35127;DHT22;21300;52.006;5.798;2022-10-24T08:31:40;14.00;95.10
35127;DHT22;21300;52.006;5.798;2022-10-24T08:34:05;14.00;95.10
35127;DHT22;21300;52.006;5.798;2022-10-24T08:36:33;14.00;95.10
35127;DHT22;21300;52.006;5.798;2022-10-24T08:39:00;14.00;95.10
35127;DHT22;21300;52.006;5.798;2022-10-24T08:41:30;14.00;95.40
35127;DHT22;21300;52.006;5.798;2022-10-24T08:43:59;14.10;95.10
35127;DHT22;21300;52.006;5.798;2022-10-24T08:46:51;14.10;95.10
35127;DHT22;21300;52.006;5.798;2022-10-24T08:52:27;14.10;95.00
35127;DHT22;21300;52.006;5.798;2022-10-24T08:54:56;14.20;95.10
35127;DHT22;21300;52.006;5.798;2022-10-24T08:57:29;14.20;95.00
35127;DHT22;21300;52.006;5.798;2022-10-24T09:00:02;14.20;95.00
35127;DHT22;21300;52.006;5.798;2022-10-24T09:02:35;14.20;95.00
35127;DHT22;21300;52.006;5.798;2022-10-24T09:07:42;14.30;95.10
35127;DHT22;21300;52.006;5.798;2022-10-24T09:10:25;14.30;95.00
35127;DHT22;21300;52.006;5.798;2022-10-24T09:12:54;14.30;95.10
35127;DHT22;21300;52.006;5.798;2022-10-24T09:15:28;14.30;95.00
35127;DHT22;21300;52.006;5.798;2022-10-24T09:17:56;14.40;95.00
35127;DHT22;21300;52.006;5.798;2022-10-24T09:20:28;14.40;95.10
35127;DHT22;21300;52.006;5.798;2022-10-24T09:22:56;14.40;95.10
35127;DHT22;21300;52.006;5.798;2022-10-24T09:25:25;14.40;95.10
35127;DHT22;21300;52.006;5.798;2022-10-24T09:27:54;14.40;95.00
35127;DHT22;21300;52.006;5.798;2022-10-24T09:30:24;14.50;95.00
35127;DHT22;21300;52.006;5.798;2022-10-24T09:32:52;14.50;95.00
35127;DHT22;21300;52.006;5.798;2022-10-24T09:35:22;14.50;95.00
35127;DHT22;21300;52.006;5.798;2022-10-24T09:37:57;14.60;94.90
35127;DHT22;21300;52.006;5.798;2022-10-24T09:40:27;14.60;95.00
35127;DHT22;21300;52.006;5.798;2022-10-24T09:43:15;14.60;94.90
35127;DHT22;21300;52.006;5.798;2022-10-24T09:48:21;14.70;95.00
35127;DHT22;21300;52.006;5.798;2022-10-24T09:50:50;14.70;95.00
35127;DHT22;21300;52.006;5.798;2022-10-24T09:53:26;14.70;94.90
35127;DHT22;21300;52.006;5.798;2022-10-24T09:55:57;14.70;94.80
35127;DHT22;21300;52.006;5.798;2022-10-24T09:58:27;14.80;94.90
35127;DHT22;21300;52.006;5.798;2022-10-24T10:03:39;14.80;94.90
35127;DHT22;21300;52.006;5.798;2022-10-24T10:06:18;14.90;95.00
35127;DHT22;21300;52.006;5.798;2022-10-24T10:08:50;14.90;94.90
35127;DHT22;21300;52.006;5.798;2022-10-24T10:11:24;14.90;94.90
35127;DHT22;21300;52.006;5.798;2022-10-24T10:13:51;14.90;95.00
35127;DHT22;21300;52.006;5.798;2022-10-24T10:18:47;15.00;95.00
35127;DHT22;21300;52.006;5.798;2022-10-24T10:21:22;15.00;94.90
35127;DHT22;21300;52.006;5.798;2022-10-24T10:23:51;15.00;95.00
35127;DHT22;21300;52.006;5.798;2022-10-24T10:26:29;15.00;95.00
35127;DHT22;21300;52.006;5.798;2022-10-24T10:29:21;15.10;95.00
35127;DHT22;21300;52.006;5.798;2022-10-24T10:36:58;15.10;94.90
35127;DHT22;21300;52.006;5.798;2022-10-24T10:48:06;15.20;94.90
35127;DHT22;21300;52.006;5.798;2022-10-24T10:51:00;15.30;94.90
35127;DHT22;21300;52.006;5.798;2022-10-24T10:56:09;15.30;94.90
35127;DHT22;21300;52.006;5.798;2022-10-24T10:58:57;15.30;94.90
35127;DHT22;21300;52.006;5.798;2022-10-24T11:04:28;15.40;94.70
35127;DHT22;21300;52.006;5.798;2022-10-24T11:07:21;15.40;94.70
35127;DHT22;21300;52.006;5.798;2022-10-24T11:09:50;15.40;94.80
35127;DHT22;21300;52.006;5.798;2022-10-24T11:12:23;15.50;94.70
35127;DHT22;21300;52.006;5.798;2022-10-24T11:14:54;15.50;94.60
35127;DHT22;21300;52.006;5.798;2022-10-24T11:17:26;15.50;94.70
35127;DHT22;21300;52.006;5.798;2022-10-24T11:20:17;15.50;94.70
35127;DHT22;21300;52.006;5.798;2022-10-24T11:25:37;15.60;94.60
35127;DHT22;21300;52.006;5.798;2022-10-24T11:28:22;15.60;94.70
35127;DHT22;21300;52.006;5.798;2022-10-24T11:31:05;15.60;94.40
35127;DHT22;21300;52.006;5.798;2022-10-24T11:33:39;15.60;94.40
35127;DHT22;21300;52.006;5.798;2022-10-24T11:39:10;15.70;94.30
35127;DHT22;21300;52.006;5.798;2022-10-24T11:41:52;15.70;94.30
35127;DHT22;21300;52.006;5.798;2022-10-24T11:44:34;15.70;94.30
35127;DHT22;21300;52.006;5.798;2022-10-24T11:49:37;15.70;94.30
35127;DHT22;21300;52.006;5.798;2022-10-24T11:52:21;15.80;94.20
35127;DHT22;21300;52.006;5.798;2022-10-24T11:54:53;15.80;94.00
35127;DHT22;21300;52.006;5.798;2022-10-24T11:57:23;15.80;94.00
35127;DHT22;21300;52.006;5.798;2022-10-24T11:59:51;15.80;94.00
35127;DHT22;21300;52.006;5.798;2022-10-24T12:05:50;15.80;94.00
35127;DHT22;21300;52.006;5.798;2022-10-24T12:17:10;15.90;93.80
35127;DHT22;21300;52.006;5.798;2022-10-24T12:19:42;15.90;93.70
35127;DHT22;21300;52.006;5.798;2022-10-24T12:22:18;16.00;93.70
35127;DHT22;21300;52.006;5.798;2022-10-24T12:25:02;16.00;93.70
35127;DHT22;21300;52.006;5.798;2022-10-24T12:27:39;16.00;93.60
35127;DHT22;21300;52.006;5.798;2022-10-24T12:32:48;16.00;93.60
35127;DHT22;21300;52.006;5.798;2022-10-24T12:35:43;16.00;93.40
35127;DHT22;21300;52.006;5.798;2022-10-24T12:39:00;16.00;93.30
35127;DHT22;21300;52.006;5.798;2022-10-24T12:41:06;16.00;93.40
35127;DHT22;21300;52.006;5.798;2022-10-24T12:46:55;16.10;93.20
35127;DHT22;21300;52.006;5.798;2022-10-24T12:49:31;16.00;93.20
35127;DHT22;21300;52.006;5.798;2022-10-24T12:51:58;16.10;93.20
35127;DHT22;21300;52.006;5.798;2022-10-24T12:54:44;16.10;93.30
35127;DHT22;21300;52.006;5.798;2022-10-24T12:59:45;16.10;93.10
35127;DHT22;21300;52.006;5.798;2022-10-24T13:08:16;16.20;93.10
35127;DHT22;21300;52.006;5.798;2022-10-24T13:11:10;16.20;93.10
35127;DHT22;21300;52.006;5.798;2022-10-24T13:19:19;16.20;93.10
35127;DHT22;21300;52.006;5.798;2022-10-24T13:21:55;16.20;93.00
35127;DHT22;21300;52.006;5.798;2022-10-24T13:24:41;16.20;93.00
35127;DHT22;21300;52.006;5.798;2022-10-24T13:37:26;16.20;93.10
35127;DHT22;21300;52.006;5.798;2022-10-24T13:40:26;16.30;93.10
35127;DHT22;21300;52.006;5.798;2022-10-24T13:42:58;16.20;93.00
35127;DHT22;21300;52.006;5.798;2022-10-24T13:45:43;16.30;93.00
35127;DHT22;21300;52.006;5.798;2022-10-24T13:48:19;16.30;93.00
35127;DHT22;21300;52.006;5.798;2022-10-24T13:51:02;16.30;93.00
35127;DHT22;21300;52.006;5.798;2022-10-24T13:53:30;16.30;93.10
35127;DHT22;21300;52.006;5.798;2022-10-24T13:56:03;16.30;93.00
35127;DHT22;21300;52.006;5.798;2022-10-24T13:58:40;16.30;93.00
35127;DHT22;21300;52.006;5.798;2022-10-24T14:01:25;16.30;93.00
35127;DHT22;21300;52.006;5.798;2022-10-24T14:03:53;16.30;92.80
35127;DHT22;21300;52.006;5.798;2022-10-24T14:06:24;16.30;92.90
35127;DHT22;21300;52.006;5.798;2022-10-24T14:08:52;16.30;92.90
35127;DHT22;21300;52.006;5.798;2022-10-24T14:11:21;16.30;92.90
35127;DHT22;21300;52.006;5.798;2022-10-24T14:13:52;16.30;92.90
35127;DHT22;21300;52.006;5.798;2022-10-24T14:16:27;16.30;92.90
35127;DHT22;21300;52.006;5.798;2022-10-24T14:21:43;16.30;92.90
35127;DHT22;21300;52.006;5.798;2022-10-24T14:24:14;16.30;92.90
35127;DHT22;21300;52.006;5.798;2022-10-24T14:26:41;16.30;92.90
35127;DHT22;21300;52.006;5.798;2022-10-24T14:29:22;16.30;92.90
35127;DHT22;21300;52.006;5.798;2022-10-24T14:32:05;16.30;92.90
35127;DHT22;21300;52.006;5.798;2022-10-24T14:34:35;16.30;92.90
35127;DHT22;21300;52.006;5.798;2022-10-24T14:37:06;16.30;92.90
35127;DHT22;21300;52.006;5.798;2022-10-24T14:39:32;16.30;92.90
35127;DHT22;21300;52.006;5.798;2022-10-24T14:41:58;16.30;92.90
35127;DHT22;21300;52.006;5.798;2022-10-24T14:44:26;16.30;93.00
35127;DHT22;21300;52.006;5.798;2022-10-24T14:47:28;16.30;92.90
35127;DHT22;21300;52.006;5.798;2022-10-24T14:49:54;16.30;92.90
35127;DHT22;21300;52.006;5.798;2022-10-24T14:52:34;16.30;92.90
35127;DHT22;21300;52.006;5.798;2022-10-24T14:55:18;16.30;93.00
35127;DHT22;21300;52.006;5.798;2022-10-24T14:57:50;16.30;92.90
35127;DHT22;21300;52.006;5.798;2022-10-24T15:00:24;16.30;92.90
35127;DHT22;21300;52.006;5.798;2022-10-24T15:02:53;16.30;92.90
35127;DHT22;21300;52.006;5.798;2022-10-24T15:10:38;16.30;92.90
35127;DHT22;21300;52.006;5.798;2022-10-24T15:13:16;16.30;92.90
35127;DHT22;21300;52.006;5.798;2022-10-24T15:15:57;16.30;92.90
35127;DHT22;21300;52.006;5.798;2022-10-24T15:18:31;16.30;92.90
35127;DHT22;21300;52.006;5.798;2022-10-24T15:23:31;16.30;93.00
35127;DHT22;21300;52.006;5.798;2022-10-24T15:28:44;16.30;93.10
35127;DHT22;21300;52.006;5.798;2022-10-24T15:31:11;16.30;93.00
35127;DHT22;21300;52.006;5.798;2022-10-24T15:33:37;16.30;93.10
35127;DHT22;21300;52.006;5.798;2022-10-24T15:36:02;16.30;93.10
35127;DHT22;21300;52.006;5.798;2022-10-24T15:38:29;16.20;93.00
35127;DHT22;21300;52.006;5.798;2022-10-24T15:40:54;16.20;93.00
35127;DHT22;21300;52.006;5.798;2022-10-24T15:43:22;16.20;93.10
35127;DHT22;21300;52.006;5.798;2022-10-24T15:45:48;16.20;93.00
35127;DHT22;21300;52.006;5.798;2022-10-24T15:48:13;16.30;93.10
35127;DHT22;21300;52.006;5.798;2022-10-24T15:50:43;16.20;93.10
35127;DHT22;21300;52.006;5.798;2022-10-24T15:53:15;16.20;93.10
35127;DHT22;21300;52.006;5.798;2022-10-24T15:55:42;16.20;93.10
35127;DHT22;21300;52.006;5.798;2022-10-24T15:58:13;16.20;93.10
35127;DHT22;21300;52.006;5.798;2022-10-24T16:00:39;16.20;93.20
35127;DHT22;21300;52.006;5.798;2022-10-24T16:03:07;16.20;93.10
35127;DHT22;21300;52.006;5.798;2022-10-24T16:05:40;16.10;93.20
35127;DHT22;21300;52.006;5.798;2022-10-24T16:08:10;16.10;93.20
35127;DHT22;21300;52.006;5.798;2022-10-24T16:10:36;16.10;93.20
35127;DHT22;21300;52.006;5.798;2022-10-24T16:13:01;16.10;93.20
35127;DHT22;21300;52.006;5.798;2022-10-24T16:15:30;16.10;93.30
35127;DHT22;21300;52.006;5.798;2022-10-24T16:17:58;16.10;93.30
35127;DHT22;21300;52.006;5.798;2022-10-24T16:20:24;16.10;93.30
35127;DHT22;21300;52.006;5.798;2022-10-24T16:22:50;16.00;93.30
35127;DHT22;21300;52.006;5.798;2022-10-24T16:25:36;16.00;93.30
35127;DHT22;21300;52.006;5.798;2022-10-24T16:28:04;16.00;93.30
35127;DHT22;21300;52.006;5.798;2022-10-24T16:30:32;16.00;93.70
35127;DHT22;21300;52.006;5.798;2022-10-24T16:32:58;16.00;93.40
35127;DHT22;21300;52.006;5.798;2022-10-24T16:35:29;16.00;93.40
35127;DHT22;21300;52.006;5.798;2022-10-24T16:37:57;16.00;93.40
35127;DHT22;21300;52.006;5.798;2022-10-24T16:40:24;15.90;93.40
35127;DHT22;21300;52.006;5.798;2022-10-24T16:42:52;15.90;93.50
35127;DHT22;21300;52.006;5.798;2022-10-24T16:45:18;15.90;93.50
35127;DHT22;21300;52.006;5.798;2022-10-24T16:47:44;15.90;93.50
35127;DHT22;21300;52.006;5.798;2022-10-24T16:50:15;15.90;93.50
35127;DHT22;21300;52.006;5.798;2022-10-24T16:52:41;15.90;93.60
35127;DHT22;21300;52.006;5.798;2022-10-24T16:55:09;15.90;93.60
35127;DHT22;21300;52.006;5.798;2022-10-24T16:57:35;15.90;93.60
35127;DHT22;21300;52.006;5.798;2022-10-24T17:00:01;15.80;93.60
35127;DHT22;21300;52.006;5.798;2022-10-24T17:02:26;15.80;93.60
35127;DHT22;21300;52.006;5.798;2022-10-24T17:04:52;15.80;93.60
35127;DHT22;21300;52.006;5.798;2022-10-24T17:07:17;15.80;93.70
35127;DHT22;21300;52.006;5.798;2022-10-24T17:09:43;15.80;93.70
35127;DHT22;21300;52.006;5.798;2022-10-24T17:12:27;15.80;93.70
35127;DHT22;21300;52.006;5.798;2022-10-24T17:14:53;15.70;93.70
35127;DHT22;21300;52.006;5.798;2022-10-24T17:17:19;15.70;93.70
35127;DHT22;21300;52.006;5.798;2022-10-24T17:19:45;15.70;93.70
35127;DHT22;21300;52.006;5.798;2022-10-24T17:22:13;15.70;93.80
35127;DHT22;21300;52.006;5.798;2022-10-24T17:24:39;15.70;93.80
35127;DHT22;21300;52.006;5.798;2022-10-24T17:27:10;15.70;93.80
35127;DHT22;21300;52.006;5.798;2022-10-24T17:29:36;15.70;93.80
35127;DHT22;21300;52.006;5.798;2022-10-24T17:32:02;15.60;93.80
35127;DHT22;21300;52.006;5.798;2022-10-24T17:34:30;15.60;93.80
35127;DHT22;21300;52.006;5.798;2022-10-24T17:42:18;15.50;93.90
35127;DHT22;21300;52.006;5.798;2022-10-24T17:44:44;15.50;93.90
35127;DHT22;21300;52.006;5.798;2022-10-24T17:47:10;15.50;93.90
35127;DHT22;21300;52.006;5.798;2022-10-24T17:49:35;15.50;93.90
35127;DHT22;21300;52.006;5.798;2022-10-24T17:52:01;15.50;94.00
35127;DHT22;21300;52.006;5.798;2022-10-24T17:54:27;15.40;94.00